Terminal Aerodrome Forecast
Issued by NWS

Home | Current Version | Previous Version | Text Only | Print | Product List | Glossary On
Versions: 1 2 3 4 5 6 7 8 9 10 11 12
798
FTUS44 KCRP 111733
TAFLRD
TAF
KLRD 111733Z 1118/1218 29004KT P6SM SCT200
     FM121000 35008KT P6SM SCT180 SCT250=

USA.gov is the U.S. government's official web portal to all federal, state and local government web resources and services.